PWSweather.com
Personal Weather Stations
Station Observations
KTXPLANO60
Highlands Of Russell Park, Plano, TX 75025

Highlands Of Russell ParkPlano, TX 75025

Lat: 33.10431671, Lon: -96.75176239

Elevation: 761

Station Type: Davis Wireless VP2 Plus

http://www.planoweather.com

Latest ConditionsUpdated 8:40:00 AM CDT Sunday, Jun 25, 2017
Currently Today's Max Today's Min Today's Average
Temperature 73.3°F22.9°C 73.3°F22.9°C 69.0°F20.6°C 71.1°F21.7°C
Dew Point 65.3°F18.5°C 65.4°F18.6°C 64.2°F17.9°C 64.7°F18.2°C
Winds 8.1 mph ENE13.0 kmh ENE 8.1 mph ENE13.0 kmh ENE - 2.1 mph 3.4 kmh
Wind Gusts 11.5 mph18.5 kmh 11.5 mph18.5 kmh - -
Humidity 76% 86% 74% 80%
Pressure 30.16 in1021.3 mb 30.16 in1021.3 mb 30.11 in1019.6 mb -
Hour Temp Dew Point Humidity Winds Wind Gusts Pressure Precip Precip Rate Daily Precip Total
08:40 AM 73.3°F22.9°C 65.3°F18.5°C 76% 8.1 mph ENE13.0 kmh ENE 11.5 mph18.5 kmh 30.16 in1021.3 mb - 0.00 in0.0 mm 0.00 in0.0 mm
08:30 AM 73.0°F22.8°C 65.3°F18.5°C 77% 3.5 mph E5.6 kmh E 8.1 mph13.0 kmh 30.15 in1021.0 mb - 0.00 in0.0 mm 0.00 in0.0 mm
08:20 AM 72.2°F22.3°C 65.4°F18.6°C 79% 4.6 mph E7.4 kmh E 6.9 mph11.1 kmh 30.15 in1021.0 mb - 0.00 in0.0 mm 0.00 in0.0 mm
08:10 AM 71.7°F22.1°C 65.2°F18.4°C 80% 5.8 mph E9.3 kmh E 8.1 mph13.0 kmh 30.15 in1021.0 mb - 0.00 in0.0 mm 0.00 in0.0 mm
08:00 AM 71.3°F21.8°C 64.8°F18.2°C 80% 3.5 mph E5.6 kmh E 5.8 mph9.3 kmh 30.15 in1021.0 mb - 0.00 in0.0 mm 0.00 in0.0 mm
07:50 AM 71.0°F21.7°C 64.5°F18.1°C 80% 5.8 mph E9.3 kmh E 8.1 mph13.0 kmh 30.15 in1021.0 mb - 0.00 in0.0 mm 0.00 in0.0 mm
07:40 AM 70.4°F21.3°C 64.6°F18.1°C 82% 4.6 mph E7.4 kmh E 8.1 mph13.0 kmh 30.15 in1021.0 mb - 0.00 in0.0 mm 0.00 in0.0 mm
07:30 AM 69.7°F20.9°C 64.6°F18.1°C 84% 3.5 mph ENE5.6 kmh ENE 6.9 mph11.1 kmh 30.14 in1020.7 mb - 0.00 in0.0 mm 0.00 in0.0 mm
07:20 AM 69.5°F20.8°C 64.8°F18.2°C 85% 2.3 mph ENE3.7 kmh ENE 3.5 mph5.6 kmh 30.14 in1020.7 mb - 0.00 in0.0 mm 0.00 in0.0 mm
07:10 AM 69.3°F20.7°C 64.9°F18.3°C 86% 2.3 mph ENE3.7 kmh ENE 4.6 mph7.4 kmh 30.14 in1020.7 mb - 0.00 in0.0 mm 0.00 in0.0 mm
07:00 AM 69.0°F20.6°C 64.3°F17.9°C 85% 1.2 mph ENE1.9 kmh ENE 3.5 mph5.6 kmh 30.14 in1020.7 mb - 0.00 in0.0 mm 0.00 in0.0 mm
06:50 AM 69.0°F20.6°C 64.3°F17.9°C 85% 1.2 mph NE1.9 kmh NE 2.3 mph3.7 kmh 30.14 in1020.7 mb - 0.00 in0.0 mm 0.00 in0.0 mm
06:40 AM 69.1°F20.6°C 64.4°F18.0°C 85% 1.2 mph NE1.9 kmh NE 1.2 mph1.9 kmh 30.14 in1020.7 mb - 0.00 in0.0 mm 0.00 in0.0 mm
06:30 AM 69.2°F20.7°C 64.5°F18.1°C 85% 1.2 mph NNE1.9 kmh NNE 3.5 mph5.6 kmh 30.13 in1020.3 mb - 0.00 in0.0 mm 0.00 in0.0 mm
06:20 AM 69.4°F20.8°C 64.7°F18.2°C 85% 1.2 mph NE1.9 kmh NE 3.5 mph5.6 kmh 30.13 in1020.3 mb - 0.00 in0.0 mm 0.00 in0.0 mm
06:10 AM 69.5°F20.8°C 64.5°F18.1°C 84% 2.3 mph NE3.7 kmh NE 3.5 mph5.6 kmh 30.14 in1020.7 mb - 0.00 in0.0 mm 0.00 in0.0 mm
06:00 AM 69.8°F21.0°C 64.7°F18.2°C 84% Calm Calm 2.3 mph3.7 kmh 30.13 in1020.3 mb - 0.00 in0.0 mm 0.00 in0.0 mm
05:50 AM 70.0°F21.1°C 64.6°F18.1°C 83% Calm Calm 1.2 mph1.9 kmh 30.12 in1020.0 mb - 0.00 in0.0 mm 0.00 in0.0 mm
05:40 AM 70.2°F21.2°C 64.8°F18.2°C 83% 2.3 mph ENE3.7 kmh ENE 3.5 mph5.6 kmh 30.12 in1020.0 mb - 0.00 in0.0 mm 0.00 in0.0 mm
05:30 AM 70.3°F21.3°C 64.5°F18.1°C 82% 3.5 mph E5.6 kmh E 5.8 mph9.3 kmh 30.12 in1020.0 mb - 0.00 in0.0 mm 0.00 in0.0 mm
05:20 AM 70.4°F21.3°C 64.6°F18.1°C 82% 3.5 mph E5.6 kmh E 4.6 mph7.4 kmh 30.12 in1020.0 mb - 0.00 in0.0 mm 0.00 in0.0 mm
05:10 AM 70.4°F21.3°C 65.0°F18.3°C 83% 4.6 mph E7.4 kmh E 5.8 mph9.3 kmh 30.12 in1020.0 mb - 0.00 in0.0 mm 0.00 in0.0 mm
05:00 AM 70.3°F21.3°C 64.9°F18.3°C 83% 2.3 mph E3.7 kmh E 4.6 mph7.4 kmh 30.12 in1020.0 mb - 0.00 in0.0 mm 0.00 in0.0 mm
04:50 AM 70.3°F21.3°C 64.9°F18.3°C 83% 1.2 mph E1.9 kmh E 2.3 mph3.7 kmh 30.12 in1020.0 mb - 0.00 in0.0 mm 0.00 in0.0 mm
04:40 AM 70.3°F21.3°C 64.5°F18.1°C 82% 1.2 mph E1.9 kmh E 2.3 mph3.7 kmh 30.12 in1020.0 mb - 0.00 in0.0 mm 0.00 in0.0 mm
04:30 AM 70.5°F21.4°C 64.7°F18.2°C 82% 1.2 mph E1.9 kmh E 3.5 mph5.6 kmh 30.12 in1020.0 mb - 0.00 in0.0 mm 0.00 in0.0 mm
04:20 AM 70.8°F21.6°C 64.6°F18.1°C 81% 1.2 mph E1.9 kmh E 3.5 mph5.6 kmh 30.12 in1020.0 mb - 0.00 in0.0 mm 0.00 in0.0 mm
04:10 AM 71.1°F21.7°C 64.6°F18.1°C 80% 1.2 mph E1.9 kmh E 2.3 mph3.7 kmh 30.12 in1020.0 mb - 0.00 in0.0 mm 0.00 in0.0 mm
04:00 AM 71.5°F21.9°C 64.6°F18.1°C 79% 1.2 mph E1.9 kmh E 2.3 mph3.7 kmh 30.12 in1020.0 mb - 0.00 in0.0 mm 0.00 in0.0 mm
03:50 AM 71.8°F22.1°C 64.9°F18.3°C 79% 3.5 mph E5.6 kmh E 5.8 mph9.3 kmh 30.11 in1019.6 mb - 0.00 in0.0 mm 0.00 in0.0 mm
03:40 AM 72.0°F22.2°C 64.7°F18.2°C 78% 1.2 mph ENE1.9 kmh ENE 2.3 mph3.7 kmh 30.11 in1019.6 mb - 0.00 in0.0 mm 0.00 in0.0 mm
03:30 AM 72.0°F22.2°C 65.1°F18.4°C 79% 2.3 mph E3.7 kmh E 6.9 mph11.1 kmh 30.11 in1019.6 mb - 0.00 in0.0 mm 0.00 in0.0 mm
03:20 AM 72.0°F22.2°C 65.2°F18.4°C 79% 1.2 mph E1.9 kmh E 4.6 mph7.4 kmh 30.11 in1019.6 mb - 0.00 in0.0 mm 0.00 in0.0 mm
03:10 AM 72.0°F22.2°C 65.2°F18.4°C 79% 1.2 mph E1.9 kmh E 4.6 mph7.4 kmh 30.12 in1020.0 mb - 0.00 in0.0 mm 0.00 in0.0 mm
03:00 AM 72.0°F22.2°C 65.1°F18.4°C 79% Calm Calm 2.3 mph3.7 kmh 30.11 in1019.6 mb - 0.00 in0.0 mm 0.00 in0.0 mm
02:50 AM 71.9°F22.2°C 65.0°F18.3°C 79% 2.3 mph E3.7 kmh E 4.6 mph7.4 kmh 30.12 in1020.0 mb - 0.00 in0.0 mm 0.00 in0.0 mm
02:40 AM 71.9°F22.2°C 65.0°F18.3°C 79% 1.2 mph NE1.9 kmh NE 3.5 mph5.6 kmh 30.12 in1020.0 mb - 0.00 in0.0 mm 0.00 in0.0 mm
02:30 AM 71.8°F22.1°C 64.9°F18.3°C 79% Calm Calm 1.2 mph1.9 kmh 30.12 in1020.0 mb - 0.00 in0.0 mm 0.00 in0.0 mm
02:20 AM 71.6°F22.0°C 64.7°F18.2°C 79% 1.2 mph NE1.9 kmh NE 2.3 mph3.7 kmh 30.12 in1020.0 mb - 0.00 in0.0 mm 0.00 in0.0 mm
02:10 AM 71.4°F21.9°C 64.9°F18.3°C 80% 2.3 mph NE3.7 kmh NE 3.5 mph5.6 kmh 30.12 in1020.0 mb - 0.00 in0.0 mm 0.00 in0.0 mm
02:00 AM 71.2°F21.8°C 64.7°F18.2°C 80% 1.2 mph NE1.9 kmh NE 3.5 mph5.6 kmh 30.12 in1020.0 mb - 0.00 in0.0 mm 0.00 in0.0 mm
01:50 AM 71.1°F21.7°C 64.6°F18.1°C 80% 1.2 mph NE1.9 kmh NE 3.5 mph5.6 kmh 30.12 in1020.0 mb - 0.00 in0.0 mm 0.00 in0.0 mm
01:40 AM 71.0°F21.7°C 64.5°F18.1°C 80% 2.3 mph NE3.7 kmh NE 3.5 mph5.6 kmh 30.13 in1020.3 mb - 0.00 in0.0 mm 0.00 in0.0 mm
01:30 AM 71.1°F21.7°C 64.6°F18.1°C 80% 1.2 mph NE1.9 kmh NE 2.3 mph3.7 kmh 30.12 in1020.0 mb - 0.00 in0.0 mm 0.00 in0.0 mm
01:20 AM 71.3°F21.8°C 64.5°F18.1°C 79% Calm Calm 1.2 mph1.9 kmh 30.12 in1020.0 mb - 0.00 in0.0 mm 0.00 in0.0 mm
01:10 AM 71.6°F22.0°C 64.4°F18.0°C 78% Calm Calm 2.3 mph3.7 kmh 30.12 in1020.0 mb - 0.00 in0.0 mm 0.00 in0.0 mm
01:00 AM 71.8°F22.1°C 64.6°F18.1°C 78% Calm Calm 1.2 mph1.9 kmh 30.12 in1020.0 mb - 0.00 in0.0 mm 0.00 in0.0 mm
12:50 AM 72.0°F22.2°C 64.4°F18.0°C 77% Calm Calm 2.3 mph3.7 kmh 30.12 in1020.0 mb - 0.00 in0.0 mm 0.00 in0.0 mm
12:40 AM 72.3°F22.4°C 64.3°F17.9°C 76% Calm Calm 2.3 mph3.7 kmh 30.12 in1020.0 mb - 0.00 in0.0 mm 0.00 in0.0 mm
12:30 AM 72.6°F22.6°C 64.6°F18.1°C 76% 1.2 mph E1.9 kmh E 1.2 mph1.9 kmh 30.12 in1020.0 mb - 0.00 in0.0 mm 0.00 in0.0 mm
12:20 AM 72.8°F22.7°C 64.4°F18.0°C 75% 4.6 mph E7.4 kmh E 5.8 mph9.3 kmh 30.12 in1020.0 mb - 0.00 in0.0 mm 0.00 in0.0 mm
12:10 AM 73.0°F22.8°C 64.2°F17.9°C 74% 3.5 mph E5.6 kmh E 6.9 mph11.1 kmh 30.11 in1019.6 mb - 0.00 in0.0 mm 0.00 in0.0 mm
12:00 AM 73.2°F22.9°C 64.4°F18.0°C 74% 3.5 mph E5.6 kmh E 4.6 mph7.4 kmh 30.11 in1019.6 mb - 0.00 in0.0 mm 0.00 in0.0 mm